createdAt,value
2023-07-14T07:04:09.001Z,2980.00
2023-07-14T07:05:08.965Z,3000.00
2023-07-14T07:07:01.830Z,2916.00
2023-07-14T07:08:01.781Z,3036.00
2023-07-14T07:09:54.683Z,3016.00
2023-07-14T07:10:54.623Z,3020.00
2023-07-14T07:12:47.492Z,3156.00
2023-07-14T07:13:47.477Z,3164.00
2023-07-14T07:15:40.372Z,3160.00
2023-07-14T07:16:40.367Z,3124.00
2023-07-14T07:18:33.222Z,3192.00
2023-07-14T07:19:43.367Z,2804.00
2023-07-14T07:21:27.033Z,2736.00
2023-07-14T07:22:27.111Z,2816.00
2023-07-14T07:24:34.838Z,2612.00
2023-07-14T07:25:34.784Z,2448.00
2023-07-14T07:29:13.881Z,2676.00
2023-07-14T07:30:13.843Z,2616.00
2023-07-14T07:32:07.632Z,2668.00
2023-07-14T07:33:07.618Z,2940.00
2023-07-14T07:35:00.550Z,3008.00
2023-07-14T07:36:00.384Z,3048.00
2023-07-14T07:37:53.306Z,3224.00
2023-07-14T07:38:53.246Z,3292.00
2023-07-14T07:39:53.232Z,2760.00
2023-07-14T07:40:53.207Z,2052.00
2023-07-14T07:41:53.201Z,1996.00
2023-07-14T07:42:53.202Z,2072.00
2023-07-14T07:43:53.146Z,2172.00
2023-07-14T07:44:53.128Z,2856.00
2023-07-14T07:45:53.148Z,2672.00
2023-07-14T07:46:53.172Z,2312.00
2023-07-14T07:47:53.112Z,2424.00
2023-07-14T07:48:53.048Z,2440.00
2023-07-14T07:49:53.031Z,2588.00
2023-07-14T07:50:53.073Z,2880.00
2023-07-14T07:51:52.992Z,2372.00
2023-07-14T07:52:52.969Z,2936.00
2023-07-14T07:53:52.951Z,2528.00
2023-07-14T07:54:52.933Z,2476.00
2023-07-14T07:55:52.911Z,2252.00
2023-07-14T07:56:52.891Z,2816.00
2023-07-14T07:57:53.832Z,2328.00
2023-07-14T07:58:53.251Z,2468.00
2023-07-14T07:59:53.516Z,2536.00
2023-07-14T08:00:54.701Z,2364.00
2023-07-14T08:01:53.143Z,2312.00
2023-07-14T08:02:53.318Z,2388.00
2023-07-14T08:03:53.153Z,2716.00
2023-07-14T08:04:52.921Z,2840.00
2023-07-14T08:05:53.003Z,2444.00
2023-07-14T08:06:52.819Z,2484.00
2023-07-14T08:07:52.766Z,2248.00
2023-07-14T08:08:52.788Z,2412.00
2023-07-14T08:09:52.640Z,2288.00
2023-07-14T08:10:52.625Z,2464.00
2023-07-14T08:11:52.622Z,2432.00
2023-07-14T08:12:52.578Z,2612.00
2023-07-14T08:13:52.583Z,2336.00
2023-07-14T08:14:52.563Z,2216.00
2023-07-14T08:15:52.811Z,2180.00
2023-07-14T08:16:52.539Z,2144.00
2023-07-14T08:17:52.518Z,2260.00
2023-07-14T08:18:53.261Z,2616.00
2023-07-14T08:19:52.450Z,2876.00
2023-07-14T08:20:52.439Z,3040.00
2023-07-14T08:21:52.412Z,3172.00
2023-07-14T08:22:52.460Z,2452.00
2023-07-14T08:23:52.382Z,2604.00
2023-07-14T08:24:52.394Z,2576.00
2023-07-14T08:25:52.336Z,2840.00
2023-07-14T08:26:52.313Z,3076.00
2023-07-14T08:27:52.318Z,3144.00
2023-07-14T08:28:52.281Z,3256.00
2023-07-14T08:29:52.266Z,3468.00
2023-07-14T08:30:52.241Z,3236.00
2023-07-14T08:31:52.288Z,3072.00
2023-07-14T08:32:52.260Z,3444.00
2023-07-14T08:33:52.832Z,3488.00
2023-07-14T08:34:52.164Z,3604.00
2023-07-14T08:35:52.165Z,3456.00
2023-07-14T08:36:52.133Z,3592.00
2023-07-14T08:37:52.130Z,2676.00
2023-07-14T08:38:52.111Z,2880.00
2023-07-14T08:41:39.408Z,2184.00
2023-07-14T08:42:32.219Z,2264.00
2023-07-14T08:44:25.092Z,2508.00
2023-07-14T08:45:25.065Z,2880.00
2023-07-14T08:46:25.069Z,2588.00
2023-07-14T08:47:25.075Z,2556.00
2023-07-14T08:48:25.012Z,2620.00
2023-07-14T08:49:24.993Z,3012.00
2023-07-14T08:50:26.908Z,3728.00
2023-07-14T08:51:24.956Z,3648.00
2023-07-14T08:52:24.943Z,3620.00
2023-07-14T08:53:24.927Z,3232.00
2023-07-14T08:54:24.932Z,3904.00
2023-07-14T08:55:24.878Z,3808.00
2023-07-14T08:56:24.878Z,3724.00
2023-07-14T08:57:24.848Z,3684.00
2023-07-14T08:58:24.831Z,3728.00
2023-07-14T08:59:24.809Z,3724.00
2023-07-14T09:00:24.791Z,3380.00
2023-07-14T09:01:24.814Z,3072.00
2023-07-14T09:02:24.814Z,3032.00
2023-07-14T09:03:24.730Z,2904.00
2023-07-14T09:04:24.753Z,2976.00
2023-07-14T09:05:24.699Z,3144.00
2023-07-14T09:06:24.683Z,3164.00
2023-07-14T09:07:24.678Z,3324.00
2023-07-14T09:08:24.646Z,3408.00
2023-07-14T09:09:24.641Z,3412.00
2023-07-14T09:10:24.606Z,3764.00
2023-07-14T09:11:24.589Z,3884.00
2023-07-14T09:12:24.584Z,3580.00
2023-07-14T09:13:24.552Z,3632.00
2023-07-14T09:14:24.531Z,3528.00
2023-07-14T09:15:24.518Z,3288.00
2023-07-14T09:16:24.513Z,3280.00
2023-07-14T09:17:24.509Z,3212.00
2023-07-14T09:18:24.576Z,3364.00
2023-07-14T09:19:24.454Z,3208.00
2023-07-14T09:20:24.437Z,3348.00
2023-07-14T09:21:24.428Z,3304.00
2023-07-14T09:22:24.400Z,3364.00
2023-07-14T09:23:24.393Z,3576.00
2023-07-14T09:24:24.353Z,3640.00
2023-07-14T09:25:24.347Z,3484.00
2023-07-14T09:26:24.321Z,3244.00
2023-07-14T09:27:24.300Z,3372.00
2023-07-14T09:28:24.311Z,3116.00
2023-07-14T09:29:24.262Z,3720.00
2023-07-14T09:30:24.250Z,3580.00
2023-07-14T09:31:24.324Z,3976.00
2023-07-14T09:32:24.247Z,3744.00
2023-07-14T09:33:24.196Z,3840.00
2023-07-14T09:34:24.185Z,3824.00
2023-07-14T09:35:24.160Z,2936.00
2023-07-14T09:36:24.149Z,3612.00
2023-07-14T09:37:24.132Z,3584.00
2023-07-14T09:38:24.105Z,3648.00
2023-07-14T09:39:24.088Z,3308.00
2023-07-14T09:40:24.071Z,2868.00
2023-07-14T09:41:24.053Z,2552.00
2023-07-14T09:42:24.125Z,2724.00
2023-07-14T09:43:24.027Z,2928.00
2023-07-14T09:44:24.005Z,2832.00
2023-07-14T09:45:23.985Z,3144.00
2023-07-14T09:46:23.981Z,2584.00
2023-07-14T09:47:24.050Z,2696.00
2023-07-14T09:48:23.930Z,3164.00
2023-07-14T09:49:23.941Z,3408.00
2023-07-14T09:50:23.897Z,3344.00
2023-07-14T09:51:23.882Z,3396.00
2023-07-14T09:52:23.862Z,3468.00
2023-07-14T09:53:23.878Z,3584.00
2023-07-14T09:54:23.827Z,3280.00
2023-07-14T09:55:23.824Z,3476.00
2023-07-14T09:56:23.786Z,3488.00
2023-07-14T09:57:37.853Z,3596.00
2023-07-14T09:58:23.780Z,2984.00
2023-07-14T09:59:23.753Z,3428.00
2023-07-14T10:00:23.718Z,3592.00
2023-07-14T10:01:23.773Z,3096.00
2023-07-14T10:02:23.719Z,3696.00
2023-07-14T10:04:23.668Z,2856.00
2023-07-14T10:05:23.634Z,2816.00
2023-07-14T10:06:23.624Z,3028.00
2023-07-14T10:07:23.624Z,3132.00
2023-07-14T10:08:23.585Z,2812.00
2023-07-14T10:09:23.565Z,2840.00
2023-07-14T10:10:23.549Z,2832.00
2023-07-14T10:11:23.530Z,2864.00
2023-07-14T10:12:23.512Z,3012.00
2023-07-14T10:13:23.515Z,3168.00
2023-07-14T10:14:23.487Z,3056.00
2023-07-14T10:15:23.462Z,3220.00
2023-07-14T10:16:23.449Z,3144.00
2023-07-14T10:17:23.523Z,3056.00
2023-07-14T10:18:23.556Z,3124.00
2023-07-14T10:19:23.431Z,3188.00
2023-07-14T10:20:23.380Z,2992.00
2023-07-14T10:21:23.363Z,4052.00
2023-07-14T10:22:23.355Z,3884.00
2023-07-14T10:23:23.327Z,3168.00
2023-07-14T10:24:23.331Z,3272.00
2023-07-14T10:25:23.293Z,3232.00
2023-07-14T10:26:23.270Z,3232.00
2023-07-14T10:27:23.252Z,3232.00
2023-07-14T10:28:23.234Z,3152.00
2023-07-14T10:29:23.249Z,3036.00
2023-07-14T10:30:23.205Z,3000.00
2023-07-14T10:31:23.221Z,2960.00
2023-07-14T10:32:23.182Z,2964.00
2023-07-14T10:33:23.175Z,2984.00
2023-07-14T10:34:23.133Z,3000.00
2023-07-14T10:35:23.115Z,2904.00
2023-07-14T10:36:23.098Z,2828.00
2023-07-14T10:37:23.088Z,2768.00
2023-07-14T10:38:23.069Z,2720.00
2023-07-14T10:39:23.046Z,2712.00
2023-07-14T10:40:23.030Z,3304.00
2023-07-14T10:41:23.146Z,2772.00
2023-07-14T10:42:22.993Z,2848.00
2023-07-14T10:43:22.974Z,3320.00
2023-07-14T10:44:22.959Z,3232.00
2023-07-14T10:45:22.943Z,3064.00
2023-07-14T10:46:22.973Z,2904.00
2023-07-14T10:47:22.962Z,2908.00
2023-07-14T10:48:22.886Z,2956.00
2023-07-14T10:49:22.868Z,3696.00
2023-07-14T10:50:22.849Z,3588.00
2023-07-14T10:51:22.839Z,3676.00
2023-07-14T10:52:22.818Z,3768.00
2023-07-14T10:53:22.802Z,2940.00
2023-07-14T10:54:22.796Z,2800.00
2023-07-14T10:55:22.771Z,2748.00
2023-07-14T10:56:22.754Z,2696.00
2023-07-14T10:57:22.733Z,2668.00
2023-07-14T10:58:22.709Z,2688.00
2023-07-14T10:59:22.693Z,2752.00
2023-07-14T11:00:22.680Z,2996.00
2023-07-14T11:01:22.698Z,2976.00
2023-07-14T11:02:22.744Z,2952.00
2023-07-14T11:03:22.690Z,2716.00
2023-07-14T11:04:22.636Z,2640.00
2023-07-14T11:05:22.637Z,2580.00
2023-07-14T11:06:22.579Z,2412.00
2023-07-14T11:07:22.559Z,2372.00
2023-07-14T11:08:22.540Z,2136.00
2023-07-14T11:09:22.522Z,2004.00
2023-07-14T11:10:22.518Z,1908.00
2023-07-14T11:11:22.530Z,1836.00
2023-07-14T11:12:22.476Z,1788.00
2023-07-14T11:13:22.451Z,1776.00
2023-07-14T11:14:22.434Z,1796.00
2023-07-14T11:15:22.422Z,1836.00
2023-07-14T11:16:22.423Z,1868.00
2023-07-14T11:17:22.381Z,1916.00
2023-07-14T11:18:22.369Z,2016.00
2023-07-14T11:19:23.623Z,2444.00
2023-07-14T11:20:22.341Z,2260.00
2023-07-14T11:21:22.318Z,2336.00
2023-07-14T11:22:22.778Z,2432.00
2023-07-14T11:23:22.286Z,2904.00
2023-07-14T11:24:22.263Z,2360.00
2023-07-14T11:25:22.255Z,2340.00
2023-07-14T11:26:22.235Z,2376.00
2023-07-14T11:27:22.210Z,2736.00
2023-07-14T11:28:22.199Z,3192.00
2023-07-14T11:29:22.198Z,2760.00
2023-07-14T11:30:22.193Z,3204.00
2023-07-14T11:31:22.144Z,3156.00
2023-07-14T11:32:22.233Z,2404.00
2023-07-14T11:33:22.104Z,2404.00
2023-07-14T11:34:22.102Z,2464.00
2023-07-14T11:35:22.089Z,2532.00
2023-07-14T11:36:22.052Z,3496.00
2023-07-14T11:37:22.039Z,3476.00
2023-07-14T11:38:22.019Z,3172.00
2023-07-14T11:39:22.000Z,2736.00
2023-07-14T11:40:21.984Z,2796.00
2023-07-14T11:44:32.431Z,3048.00
2023-07-14T11:45:32.377Z,3084.00
2023-07-14T11:46:32.402Z,3120.00
2023-07-14T11:47:32.356Z,3132.00
2023-07-14T11:48:32.329Z,2856.00
2023-07-14T11:49:32.386Z,2892.00
2023-07-14T11:51:33.411Z,2736.00
2023-07-14T11:52:32.274Z,2620.00
2023-07-14T11:53:32.239Z,2616.00
2023-07-14T11:54:32.226Z,2664.00
2023-07-14T11:55:32.208Z,2820.00
2023-07-14T11:56:32.191Z,3176.00
2023-07-14T11:57:32.213Z,3088.00
2023-07-14T11:58:32.212Z,2872.00
2023-07-14T11:59:32.150Z,3100.00
2023-07-14T12:00:32.124Z,2880.00
2023-07-14T12:01:32.118Z,2868.00
2023-07-14T12:02:32.235Z,2716.00
2023-07-14T12:03:34.360Z,2672.00
2023-07-14T12:04:32.122Z,2596.00
2023-07-14T12:05:32.038Z,2748.00
2023-07-14T12:06:32.031Z,2960.00
2023-07-14T12:07:32.694Z,2952.00
2023-07-14T12:08:31.996Z,2728.00
2023-07-14T12:09:31.973Z,2540.00
2023-07-14T12:10:31.954Z,2452.00
2023-07-14T12:11:41.336Z,2400.00
2023-07-14T12:12:31.919Z,2364.00
2023-07-14T12:13:31.902Z,2328.00
2023-07-14T12:14:31.884Z,2288.00
2023-07-14T12:15:31.874Z,2260.00
2023-07-14T12:16:31.874Z,2244.00
2023-07-14T12:17:31.909Z,2240.00
2023-07-14T12:18:31.976Z,2228.00
2023-07-14T12:19:31.818Z,2212.00
2023-07-14T12:20:31.815Z,2196.00
2023-07-14T12:21:32.248Z,2172.00
2023-07-14T12:22:31.771Z,2148.00
2023-07-14T12:23:31.738Z,2108.00
2023-07-14T12:24:31.731Z,2036.00
2023-07-14T12:25:31.704Z,1960.00
2023-07-14T12:26:31.699Z,1888.00
2023-07-14T12:27:31.666Z,1824.00
2023-07-14T12:28:31.691Z,1768.00
2023-07-14T12:29:41.177Z,1704.00
2023-07-14T12:30:31.624Z,1652.00
2023-07-14T12:31:31.614Z,1600.00
2023-07-14T12:32:31.603Z,1556.00
2023-07-14T12:33:31.562Z,1512.00
2023-07-14T12:34:31.558Z,1484.00
2023-07-14T12:35:31.531Z,1456.00
2023-07-14T12:36:31.514Z,1436.00
2023-07-14T12:37:31.491Z,1424.00
2023-07-14T12:38:31.485Z,1416.00
2023-07-14T12:39:31.464Z,1416.00
2023-07-14T12:40:31.439Z,1424.00
2023-07-14T12:41:31.425Z,1428.00
2023-07-14T12:42:31.409Z,1424.00
2023-07-14T12:43:31.393Z,1424.00
2023-07-14T12:44:31.375Z,1424.00
2023-07-14T12:45:31.359Z,1424.00
2023-07-14T12:46:31.362Z,1432.00
2023-07-14T12:47:31.344Z,1452.00
2023-07-14T12:48:31.304Z,1480.00
2023-07-14T12:49:31.286Z,1508.00
2023-07-14T12:50:31.268Z,1532.00
2023-07-14T12:51:31.255Z,1560.00
2023-07-14T12:52:31.254Z,1580.00
2023-07-14T12:53:31.216Z,1592.00
2023-07-14T12:54:31.199Z,1588.00
2023-07-14T12:55:31.195Z,1572.00
2023-07-14T12:56:31.193Z,1548.00
2023-07-14T12:57:31.149Z,1516.00
2023-07-14T12:58:31.128Z,1480.00
2023-07-14T12:59:31.124Z,1452.00
2023-07-14T13:00:31.096Z,1424.00
2023-07-14T13:01:31.138Z,1408.00
2023-07-14T13:02:31.072Z,1392.00
2023-07-14T13:03:31.044Z,1380.00
2023-07-14T13:04:31.035Z,1376.00
2023-07-14T13:05:31.008Z,1372.00
2023-07-14T13:06:30.990Z,1376.00
2023-07-14T13:07:30.972Z,1384.00
2023-07-14T13:08:30.952Z,1388.00
2023-07-14T13:09:30.938Z,1392.00
2023-07-14T13:10:30.915Z,1392.00
2023-07-14T13:11:30.951Z,1396.00
2023-07-14T13:12:30.886Z,1400.00
2023-07-14T13:13:30.857Z,1416.00
2023-07-14T13:14:30.844Z,1432.00
2023-07-14T13:15:30.827Z,1448.00
2023-07-14T13:16:30.942Z,1468.00
2023-07-14T13:17:30.829Z,1476.00
2023-07-14T13:18:30.815Z,1488.00
2023-07-14T13:19:30.758Z,1496.00
2023-07-14T13:20:30.754Z,1480.00
2023-07-14T13:21:30.724Z,1456.00
2023-07-14T13:22:30.788Z,1440.00
2023-07-14T13:23:30.690Z,1432.00
2023-07-14T13:24:30.672Z,1432.00
2023-07-14T13:25:30.648Z,1428.00
2023-07-14T13:26:30.631Z,1432.00
2023-07-14T13:27:30.616Z,1444.00
2023-07-14T13:28:30.597Z,1468.00
2023-07-14T13:29:30.585Z,1496.00
2023-07-14T13:30:30.589Z,1544.00
2023-07-14T13:31:30.569Z,1604.00
2023-07-14T13:32:30.623Z,1676.00
2023-07-14T13:33:30.509Z,1756.00
2023-07-14T13:34:30.491Z,1852.00
2023-07-14T13:35:33.940Z,1864.00
2023-07-14T13:36:30.467Z,1868.00
2023-07-14T13:37:30.464Z,1880.00
2023-07-14T13:38:30.420Z,1900.00
2023-07-14T13:39:30.418Z,1972.00
2023-07-14T13:40:30.392Z,1992.00
2023-07-14T13:41:30.371Z,1976.00
2023-07-14T13:42:30.411Z,1988.00
2023-07-14T13:43:30.337Z,2024.00
2023-07-14T13:44:30.324Z,2096.00
2023-07-14T13:45:30.323Z,2180.00
2023-07-14T13:46:30.305Z,2192.00
2023-07-14T13:47:30.294Z,2280.00
2023-07-14T13:48:30.251Z,2488.00
2023-07-14T13:49:30.232Z,2528.00
2023-07-14T13:50:30.218Z,2324.00
2023-07-14T13:51:30.207Z,2364.00
2023-07-14T13:52:30.180Z,2476.00
2023-07-14T13:53:30.165Z,2656.00
2023-07-14T13:54:30.143Z,2692.00
2023-07-14T13:55:30.140Z,2616.00
2023-07-14T13:56:30.136Z,2628.00
2023-07-14T13:57:30.099Z,2700.00
2023-07-14T13:58:30.070Z,2688.00
2023-07-14T13:59:30.060Z,2700.00
2023-07-14T14:00:30.041Z,2772.00
2023-07-14T14:01:30.105Z,2824.00
2023-07-14T14:02:30.033Z,3024.00
2023-07-14T14:03:30.028Z,3012.00
2023-07-14T14:04:30.035Z,2960.00
2023-07-14T14:05:29.961Z,3044.00
2023-07-14T14:06:29.939Z,2764.00
2023-07-14T14:07:29.926Z,3056.00
2023-07-14T14:08:29.913Z,3024.00
2023-07-14T14:09:29.887Z,2976.00
2023-07-14T14:10:29.878Z,2936.00
2023-07-14T14:11:29.854Z,2812.00
2023-07-14T14:12:29.884Z,2596.00
2023-07-14T14:13:29.829Z,2732.00
2023-07-14T14:14:29.804Z,2772.00
2023-07-14T14:15:29.788Z,2748.00
2023-07-14T14:16:29.785Z,2836.00
2023-07-14T14:17:29.801Z,2784.00
2023-07-14T14:18:29.737Z,2788.00
2023-07-14T14:19:29.733Z,2764.00
2023-07-14T14:20:29.717Z,2740.00
2023-07-14T14:21:29.690Z,2708.00
2023-07-14T14:22:29.685Z,2700.00
2023-07-14T14:23:29.657Z,2644.00
2023-07-14T14:24:29.639Z,2556.00
2023-07-14T14:25:29.714Z,2352.00
2023-07-14T14:26:29.607Z,2128.00
2023-07-14T14:27:29.592Z,2108.00
2023-07-14T14:28:29.596Z,2496.00
2023-07-14T14:29:29.565Z,2588.00
2023-07-14T14:30:29.545Z,2580.00
2023-07-14T14:31:29.571Z,2616.00
2023-07-14T14:32:29.504Z,2596.00
2023-07-14T14:33:29.565Z,2584.00
2023-07-14T14:34:29.478Z,2572.00
2023-07-14T14:35:29.473Z,2524.00
2023-07-14T14:36:29.440Z,2496.00
2023-07-14T14:37:29.423Z,2484.00
2023-07-14T14:38:43.999Z,2472.00
2023-07-14T14:39:29.395Z,2468.00
2023-07-14T14:40:29.383Z,2464.00
2023-07-14T14:41:29.408Z,2464.00
2023-07-14T14:42:29.345Z,2452.00
2023-07-14T14:43:29.402Z,2436.00
2023-07-14T14:44:29.317Z,2420.00
2023-07-14T14:45:29.296Z,2404.00
2023-07-14T14:46:29.319Z,2380.00
2023-07-14T14:47:29.296Z,2372.00
2023-07-14T14:48:40.198Z,2356.00
2023-07-14T14:49:29.227Z,2352.00
2023-07-14T14:50:29.218Z,2352.00
2023-07-14T14:51:29.208Z,2344.00
2023-07-14T14:52:29.187Z,2344.00
2023-07-14T14:53:29.175Z,2340.00
2023-07-14T14:54:29.149Z,2332.00
2023-07-14T14:55:29.133Z,2320.00
2023-07-14T14:56:29.120Z,2320.00
2023-07-14T14:57:29.099Z,2316.00
2023-07-14T14:58:29.088Z,2308.00
2023-07-14T14:59:29.071Z,2300.00
2023-07-14T15:00:29.046Z,2292.00
2023-07-14T15:01:29.055Z,2288.00
2023-07-14T15:02:29.090Z,2272.00
2023-07-14T15:03:29.057Z,2264.00
2023-07-14T15:04:29.017Z,2248.00
2023-07-14T15:05:28.968Z,2244.00
2023-07-14T15:06:28.962Z,2228.00
2023-07-14T15:07:28.932Z,2208.00
2023-07-14T15:08:28.915Z,2188.00
2023-07-14T15:09:28.909Z,2180.00
2023-07-14T15:10:28.883Z,2164.00
2023-07-14T15:11:28.874Z,2152.00
2023-07-14T15:12:28.856Z,1904.00
2023-07-14T15:13:28.837Z,2036.00
2023-07-14T15:14:28.835Z,2124.00
2023-07-14T15:15:28.825Z,2104.00
2023-07-14T15:16:28.832Z,2088.00
2023-07-14T15:17:28.789Z,2056.00
2023-07-14T15:18:28.757Z,2024.00
2023-07-14T15:19:28.742Z,2000.00
2023-07-14T15:20:28.722Z,1976.00
2023-07-14T15:21:28.705Z,1960.00
2023-07-14T15:22:28.716Z,1948.00
2023-07-14T15:23:28.693Z,1932.00
2023-07-14T15:24:28.657Z,1916.00
2023-07-14T15:25:28.640Z,1908.00
2023-07-14T15:26:28.629Z,1904.00
2023-07-14T15:27:28.618Z,1896.00
2023-07-14T15:28:28.586Z,1888.00
2023-07-14T15:29:28.573Z,1884.00
2023-07-14T15:30:28.549Z,1872.00
2023-07-14T15:31:28.567Z,1864.00
2023-07-14T15:32:28.598Z,1856.00
2023-07-14T15:33:28.564Z,1848.00
2023-07-14T15:34:28.488Z,1844.00
2023-07-14T15:35:29.614Z,1836.00
2023-07-14T15:36:28.465Z,1828.00
2023-07-14T15:37:28.452Z,1820.00
2023-07-14T15:38:28.424Z,1816.00
2023-07-14T15:39:28.405Z,1808.00
2023-07-14T15:40:28.387Z,1804.00
2023-07-14T15:41:28.376Z,1788.00
2023-07-14T15:42:28.360Z,1784.00
2023-07-14T15:43:28.347Z,1780.00
2023-07-14T15:44:28.338Z,1776.00
2023-07-14T15:45:28.325Z,1772.00
2023-07-14T15:46:28.326Z,1764.00
2023-07-14T15:47:28.326Z,1764.00
2023-07-14T15:48:40.379Z,1760.00
2023-07-14T15:49:28.245Z,1760.00
2023-07-14T15:50:28.229Z,1764.00
2023-07-14T15:51:28.212Z,1764.00
2023-07-14T15:52:28.206Z,1760.00
2023-07-14T15:53:28.172Z,1772.00
2023-07-14T15:54:28.159Z,1752.00
2023-07-14T15:55:28.144Z,1756.00
2023-07-14T15:56:28.147Z,1744.00
2023-07-14T15:57:28.110Z,1740.00
2023-07-14T15:58:28.093Z,1732.00
2023-07-14T15:59:28.073Z,1724.00
2023-07-14T16:00:28.115Z,1720.00
2023-07-14T16:01:30.191Z,1716.00
2023-07-14T16:02:28.122Z,1716.00
2023-07-14T16:03:28.050Z,1708.00
2023-07-14T16:04:27.996Z,1700.00
2023-07-14T16:05:28.010Z,1692.00
2023-07-14T16:06:28.001Z,1692.00
2023-07-14T16:07:27.945Z,1688.00
2023-07-14T16:08:27.931Z,1684.00
2023-07-14T16:09:27.908Z,1680.00
2023-07-14T16:10:27.898Z,1676.00
2023-07-14T16:11:27.880Z,1672.00
2023-07-14T16:12:27.893Z,1672.00
2023-07-14T16:13:27.852Z,1664.00
2023-07-14T16:14:27.832Z,1656.00
2023-07-14T16:15:27.814Z,1652.00
2023-07-14T16:16:27.819Z,1640.00
2023-07-14T16:17:27.799Z,1632.00
2023-07-14T16:18:27.764Z,1612.00
2023-07-14T16:19:28.419Z,1604.00
2023-07-14T16:20:27.736Z,1600.00
2023-07-14T16:21:27.732Z,1516.00
2023-07-14T16:22:27.711Z,1404.00
2023-07-14T16:23:27.698Z,1564.00
2023-07-14T16:24:27.667Z,1588.00
2023-07-14T16:25:27.653Z,1576.00
2023-07-14T16:26:27.636Z,1572.00
2023-07-14T16:27:27.614Z,1576.00
2023-07-14T16:28:27.597Z,1572.00
2023-07-14T16:29:27.586Z,1564.00
2023-07-14T16:30:27.571Z,1568.00
2023-07-14T16:31:27.634Z,1552.00
2023-07-14T16:32:27.603Z,1504.00
2023-07-14T16:33:27.519Z,1540.00
2023-07-14T16:34:27.498Z,1528.00
2023-07-14T16:35:27.491Z,1524.00
2023-07-14T16:36:27.464Z,1512.00
2023-07-14T16:37:27.463Z,1504.00
2023-07-14T16:38:27.432Z,1496.00
2023-07-14T16:39:27.415Z,1480.00
2023-07-14T16:40:27.409Z,1464.00
2023-07-14T16:41:27.426Z,1460.00
2023-07-14T16:42:27.366Z,1448.00
2023-07-14T16:43:27.349Z,1436.00
2023-07-14T16:44:27.333Z,1432.00
2023-07-14T16:45:27.312Z,1428.00
2023-07-14T16:46:27.355Z,1424.00
2023-07-14T16:47:27.297Z,1416.00
2023-07-14T16:48:27.272Z,1412.00
2023-07-14T16:49:27.254Z,1408.00
2023-07-14T16:50:27.231Z,1396.00
2023-07-14T16:51:27.227Z,1392.00
2023-07-14T16:52:27.274Z,1364.00
2023-07-14T16:53:27.199Z,1348.00
2023-07-14T16:54:27.161Z,1364.00
2023-07-14T16:55:27.150Z,1344.00
2023-07-14T16:56:27.157Z,1340.00
2023-07-14T16:57:27.111Z,1320.00
2023-07-14T16:58:27.096Z,1316.00
2023-07-14T16:59:27.079Z,1284.00
2023-07-14T17:00:27.084Z,1292.00
2023-07-14T17:01:27.102Z,1248.00
2023-07-14T17:02:27.074Z,1260.00
2023-07-14T17:03:27.014Z,1212.00
2023-07-14T17:04:27.079Z,1200.00
2023-07-14T17:05:26.980Z,1148.00
2023-07-14T17:06:42.027Z,1112.00
2023-07-14T17:07:26.949Z,1140.00
2023-07-14T17:08:26.931Z,1120.00
2023-07-14T17:09:26.917Z,1136.00
2023-07-14T17:10:26.892Z,1124.00
2023-07-14T17:11:26.874Z,1096.00
2023-07-14T17:12:26.908Z,1108.00
2023-07-14T17:13:27.305Z,1068.00
2023-07-14T17:14:26.828Z,1056.00
2023-07-14T17:15:26.816Z,1112.00
2023-07-14T17:16:26.883Z,1092.00
2023-07-14T17:17:26.856Z,1068.00
2023-07-14T17:18:26.757Z,1040.00
2023-07-14T17:19:26.750Z,1072.00
2023-07-14T17:20:26.720Z,1040.00
2023-07-14T17:21:26.704Z,1044.00
2023-07-14T17:22:26.753Z,1060.00
2023-07-14T17:23:26.673Z,1064.00
2023-07-14T17:24:26.663Z,1080.00
2023-07-14T17:25:26.639Z,1044.00
2023-07-14T17:26:26.621Z,1060.00
2023-07-14T17:27:26.614Z,1028.00
2023-07-14T17:28:26.580Z,1020.00
2023-07-14T17:29:26.570Z,1052.00
2023-07-14T17:30:26.567Z,1092.00
2023-07-14T17:31:26.608Z,1240.00
2023-07-14T17:32:26.525Z,1436.00
2023-07-14T17:33:26.507Z,1680.00
2023-07-14T17:34:26.480Z,1744.00
2023-07-14T17:35:26.467Z,1780.00
2023-07-14T17:36:26.451Z,1580.00
2023-07-14T17:37:26.432Z,1772.00
2023-07-14T17:38:26.414Z,1728.00
2023-07-14T17:39:45.568Z,1640.00
2023-07-14T17:40:26.386Z,1612.00
2023-07-14T17:41:26.404Z,1588.00
2023-07-14T17:42:26.346Z,1516.00
2023-07-14T17:43:26.346Z,1580.00
2023-07-14T17:44:26.317Z,1608.00
2023-07-14T17:45:26.298Z,1564.00
2023-07-14T17:46:26.304Z,1496.00
2023-07-14T17:47:26.282Z,1404.00
2023-07-14T17:48:26.253Z,1244.00
2023-07-14T17:49:26.232Z,1136.00
2023-07-14T17:50:26.218Z,1132.00
2023-07-14T17:51:26.200Z,1172.00
2023-07-14T17:52:26.192Z,1164.00
2023-07-14T17:53:26.172Z,1044.00
2023-07-14T17:54:26.186Z,1112.00
2023-07-14T17:55:26.144Z,1080.00
2023-07-14T17:56:26.121Z,1096.00
2023-07-14T17:57:26.109Z,1020.00
2023-07-14T17:58:26.153Z,984.00
2023-07-14T17:59:26.109Z,1012.00
2023-07-14T18:00:26.064Z,904.00
2023-07-14T18:01:26.114Z,896.00
2023-07-14T18:02:26.112Z,848.00
2023-07-14T18:03:26.214Z,964.00
2023-07-14T18:04:25.992Z,940.00
2023-07-14T18:05:25.978Z,896.00
2023-07-14T18:06:25.963Z,836.00
2023-07-14T18:07:25.955Z,788.00
2023-07-14T18:08:25.946Z,752.00
2023-07-14T18:09:25.917Z,728.00
2023-07-14T18:10:25.917Z,700.00
2023-07-14T18:11:26.312Z,688.00
2023-07-14T18:12:25.864Z,668.00
2023-07-14T18:13:25.847Z,652.00
2023-07-14T18:14:25.827Z,656.00
2023-07-14T18:15:25.823Z,668.00
2023-07-14T18:16:25.843Z,664.00
2023-07-14T18:17:25.856Z,652.00
2023-07-14T18:18:25.777Z,628.00
2023-07-14T18:19:25.749Z,628.00
2023-07-14T18:20:25.732Z,612.00
2023-07-14T18:21:25.716Z,596.00
2023-07-14T18:22:25.717Z,604.00
2023-07-14T18:23:25.680Z,600.00
2023-07-14T18:24:41.759Z,592.00
2023-07-14T18:25:25.653Z,584.00
2023-07-14T18:26:25.633Z,572.00
2023-07-14T18:27:25.631Z,564.00
2023-07-14T18:28:25.604Z,556.00
2023-07-14T18:29:25.594Z,540.00
2023-07-14T18:30:25.563Z,516.00
2023-07-14T18:31:25.638Z,500.00
2023-07-14T18:32:25.579Z,492.00
2023-07-14T18:33:25.518Z,480.00
2023-07-14T18:34:25.500Z,456.00
2023-07-14T18:35:25.481Z,448.00
2023-07-14T18:36:25.463Z,448.00
2023-07-14T18:37:25.451Z,444.00
2023-07-14T18:38:25.427Z,432.00
2023-07-14T18:39:25.410Z,424.00
2023-07-14T18:40:25.404Z,412.00
2023-07-14T18:41:27.018Z,400.00
2023-07-14T18:42:25.835Z,396.00
2023-07-14T18:43:25.345Z,388.00
2023-07-14T18:44:25.322Z,376.00
2023-07-14T18:45:25.303Z,364.00
2023-07-14T18:46:25.299Z,352.00
2023-07-14T18:47:25.305Z,340.00
2023-07-14T18:48:25.253Z,332.00
2023-07-14T18:49:25.234Z,320.00
2023-07-14T18:50:25.217Z,312.00
2023-07-14T18:51:25.200Z,300.00
2023-07-14T18:52:25.191Z,288.00
2023-07-14T18:53:25.161Z,276.00
2023-07-14T18:54:25.145Z,268.00
2023-07-14T18:55:25.130Z,260.00
2023-07-14T18:56:25.107Z,248.00
2023-07-14T18:57:25.097Z,240.00
2023-07-14T18:58:25.071Z,228.00
2023-07-14T18:59:25.055Z,220.00
2023-07-14T19:00:25.039Z,212.00
2023-07-14T19:01:25.087Z,196.00
2023-07-14T19:02:24.997Z,188.00
2023-07-14T19:03:27.142Z,176.00
2023-07-14T19:04:24.962Z,168.00
2023-07-14T19:05:24.940Z,160.00
2023-07-14T19:06:24.924Z,152.00
2023-07-14T19:07:24.909Z,144.00
2023-07-14T19:08:24.939Z,136.00
2023-07-14T19:09:24.864Z,128.00
2023-07-14T19:10:24.845Z,120.00
2023-07-14T19:11:24.939Z,116.00
2023-07-14T19:12:24.819Z,108.00
2023-07-14T19:13:24.838Z,100.00
2023-07-14T19:14:24.810Z,92.00
2023-07-14T19:15:24.778Z,88.00
2023-07-14T19:16:24.840Z,80.00
2023-07-14T19:17:28.311Z,76.00
2023-07-14T19:18:24.731Z,68.00
2023-07-14T19:19:24.683Z,68.00
2023-07-14T19:20:24.689Z,60.00
2023-07-14T19:21:24.637Z,52.00
2023-07-14T19:22:24.679Z,48.00
2023-07-14T19:23:24.605Z,44.00
2023-07-14T19:24:24.581Z,44.00
2023-07-14T19:25:24.562Z,36.00
2023-07-14T19:26:24.542Z,32.00
2023-07-14T19:27:24.526Z,28.00
2023-07-14T19:28:24.509Z,24.00
2023-07-14T19:29:24.499Z,24.00
2023-07-14T19:30:24.489Z,20.00
2023-07-14T19:31:24.478Z,16.00
2023-07-14T19:32:26.446Z,16.00